sensor_id;sensor_type;location;lat;lon;timestamp;P1;durP1;ratioP1;P2;durP2;ratioP2
67595;SDS011;54410;48.694;8.934;2022-08-03T00:00:55;4.55;;;4.05;;
67595;SDS011;54410;48.694;8.934;2022-08-03T00:03:21;4.90;;;4.50;;
67595;SDS011;54410;48.694;8.934;2022-08-03T00:05:47;5.63;;;4.65;;
67595;SDS011;54410;48.694;8.934;2022-08-03T00:08:13;5.78;;;4.55;;
67595;SDS011;54410;48.694;8.934;2022-08-03T00:10:39;4.55;;;4.13;;
67595;SDS011;54410;48.694;8.934;2022-08-03T00:13:05;5.20;;;4.10;;
67595;SDS011;54410;48.694;8.934;2022-08-03T00:15:31;5.22;;;4.57;;
67595;SDS011;54410;48.694;8.934;2022-08-03T00:17:57;4.60;;;4.10;;
67595;SDS011;54410;48.694;8.934;2022-08-03T00:20:23;5.68;;;4.68;;
67595;SDS011;54410;48.694;8.934;2022-08-03T00:22:49;4.93;;;3.90;;
67595;SDS011;54410;48.694;8.934;2022-08-03T00:25:15;5.78;;;4.82;;
67595;SDS011;54410;48.694;8.934;2022-08-03T00:27:41;5.32;;;4.82;;
67595;SDS011;54410;48.694;8.934;2022-08-03T00:30:08;4.85;;;4.45;;
67595;SDS011;54410;48.694;8.934;2022-08-03T00:32:34;5.05;;;4.60;;
67595;SDS011;54410;48.694;8.934;2022-08-03T00:35:00;6.00;;;4.43;;
67595;SDS011;54410;48.694;8.934;2022-08-03T00:37:26;5.18;;;4.50;;
67595;SDS011;54410;48.694;8.934;2022-08-03T00:39:52;5.18;;;4.78;;
67595;SDS011;54410;48.694;8.934;2022-08-03T00:42:18;5.28;;;4.82;;
67595;SDS011;54410;48.694;8.934;2022-08-03T00:44:44;5.00;;;4.50;;
67595;SDS011;54410;48.694;8.934;2022-08-03T00:47:10;4.53;;;4.13;;
67595;SDS011;54410;48.694;8.934;2022-08-03T00:49:36;5.00;;;4.60;;
67595;SDS011;54410;48.694;8.934;2022-08-03T00:52:03;5.15;;;4.65;;
67595;SDS011;54410;48.694;8.934;2022-08-03T00:54:29;4.97;;;4.13;;
67595;SDS011;54410;48.694;8.934;2022-08-03T00:56:54;4.57;;;4.15;;
67595;SDS011;54410;48.694;8.934;2022-08-03T00:59:20;4.82;;;4.22;;
67595;SDS011;54410;48.694;8.934;2022-08-03T01:01:46;4.70;;;4.10;;
67595;SDS011;54410;48.694;8.934;2022-08-03T01:04:12;4.55;;;4.15;;
67595;SDS011;54410;48.694;8.934;2022-08-03T01:09:22;4.43;;;4.03;;
67595;SDS011;54410;48.694;8.934;2022-08-03T01:12:24;5.20;;;4.72;;
67595;SDS011;54410;48.694;8.934;2022-08-03T01:14:54;5.85;;;4.57;;
67595;SDS011;54410;48.694;8.934;2022-08-03T01:17:24;5.25;;;4.43;;
67595;SDS011;54410;48.694;8.934;2022-08-03T01:20:08;6.25;;;4.35;;
67595;SDS011;54410;48.694;8.934;2022-08-03T01:25:23;4.97;;;4.57;;
67595;SDS011;54410;48.694;8.934;2022-08-03T01:30:35;5.05;;;4.40;;
67595;SDS011;54410;48.694;8.934;2022-08-03T01:33:12;5.35;;;4.18;;
67595;SDS011;54410;48.694;8.934;2022-08-03T01:35:47;6.30;;;4.40;;
67595;SDS011;54410;48.694;8.934;2022-08-03T01:38:21;4.65;;;4.25;;
67595;SDS011;54410;48.694;8.934;2022-08-03T01:40:49;4.75;;;4.35;;
67595;SDS011;54410;48.694;8.934;2022-08-03T01:43:16;4.65;;;4.25;;
67595;SDS011;54410;48.694;8.934;2022-08-03T01:45:44;5.88;;;4.60;;
67595;SDS011;54410;48.694;8.934;2022-08-03T01:48:11;5.82;;;4.65;;
67595;SDS011;54410;48.694;8.934;2022-08-03T01:50:37;4.65;;;4.25;;
67595;SDS011;54410;48.694;8.934;2022-08-03T01:53:04;4.82;;;4.43;;
67595;SDS011;54410;48.694;8.934;2022-08-03T01:55:31;4.75;;;4.35;;
67595;SDS011;54410;48.694;8.934;2022-08-03T01:57:59;4.40;;;4.07;;
67595;SDS011;54410;48.694;8.934;2022-08-03T02:00:27;5.13;;;4.63;;
67595;SDS011;54410;48.694;8.934;2022-08-03T02:02:52;4.20;;;3.80;;
67595;SDS011;54410;48.694;8.934;2022-08-03T02:05:19;5.78;;;4.00;;
67595;SDS011;54410;48.694;8.934;2022-08-03T02:07:45;4.68;;;4.20;;
67595;SDS011;54410;48.694;8.934;2022-08-03T02:10:13;4.53;;;4.13;;
67595;SDS011;54410;48.694;8.934;2022-08-03T02:12:41;4.57;;;4.18;;
67595;SDS011;54410;48.694;8.934;2022-08-03T02:15:08;4.78;;;4.03;;
67595;SDS011;54410;48.694;8.934;2022-08-03T02:17:36;5.38;;;4.40;;
67595;SDS011;54410;48.694;8.934;2022-08-03T02:20:03;5.05;;;4.55;;
67595;SDS011;54410;48.694;8.934;2022-08-03T02:22:29;5.28;;;4.78;;
67595;SDS011;54410;48.694;8.934;2022-08-03T02:24:55;5.97;;;4.50;;
67595;SDS011;54410;48.694;8.934;2022-08-03T02:27:22;4.53;;;4.13;;
67595;SDS011;54410;48.694;8.934;2022-08-03T02:29:50;5.00;;;4.57;;
67595;SDS011;54410;48.694;8.934;2022-08-03T02:32:20;6.50;;;4.75;;
67595;SDS011;54410;48.694;8.934;2022-08-03T02:34:49;5.18;;;4.78;;
67595;SDS011;54410;48.694;8.934;2022-08-03T02:37:17;5.32;;;4.82;;
67595;SDS011;54410;48.694;8.934;2022-08-03T02:39:44;4.70;;;4.30;;
67595;SDS011;54410;48.694;8.934;2022-08-03T02:42:11;6.20;;;4.95;;
67595;SDS011;54410;48.694;8.934;2022-08-03T02:44:38;6.60;;;5.03;;
67595;SDS011;54410;48.694;8.934;2022-08-03T02:47:06;5.18;;;4.70;;
67595;SDS011;54410;48.694;8.934;2022-08-03T02:49:34;5.47;;;4.88;;
67595;SDS011;54410;48.694;8.934;2022-08-03T02:52:01;4.57;;;4.13;;
67595;SDS011;54410;48.694;8.934;2022-08-03T02:54:28;6.15;;;4.72;;
67595;SDS011;54410;48.694;8.934;2022-08-03T02:56:55;5.07;;;4.63;;
67595;SDS011;54410;48.694;8.934;2022-08-03T02:59:22;6.63;;;4.68;;
67595;SDS011;54410;48.694;8.934;2022-08-03T03:01:48;9.00;;;5.07;;
67595;SDS011;54410;48.694;8.934;2022-08-03T03:04:14;4.88;;;4.45;;
67595;SDS011;54410;48.694;8.934;2022-08-03T03:06:40;7.03;;;5.20;;
67595;SDS011;54410;48.694;8.934;2022-08-03T03:09:07;4.93;;;4.50;;
67595;SDS011;54410;48.694;8.934;2022-08-03T03:11:32;4.93;;;4.43;;
67595;SDS011;54410;48.694;8.934;2022-08-03T03:14:00;5.47;;;5.03;;
67595;SDS011;54410;48.694;8.934;2022-08-03T03:16:27;6.18;;;4.18;;
67595;SDS011;54410;48.694;8.934;2022-08-03T03:18:54;5.00;;;4.50;;
67595;SDS011;54410;48.694;8.934;2022-08-03T03:21:20;5.40;;;4.93;;
67595;SDS011;54410;48.694;8.934;2022-08-03T03:23:46;5.78;;;4.93;;
67595;SDS011;54410;48.694;8.934;2022-08-03T03:26:13;5.20;;;4.68;;
67595;SDS011;54410;48.694;8.934;2022-08-03T03:28:39;5.10;;;4.70;;
67595;SDS011;54410;48.694;8.934;2022-08-03T03:31:06;5.68;;;5.18;;
67595;SDS011;54410;48.694;8.934;2022-08-03T03:33:32;5.47;;;4.97;;
67595;SDS011;54410;48.694;8.934;2022-08-03T03:35:59;6.95;;;4.72;;
67595;SDS011;54410;48.694;8.934;2022-08-03T03:38:24;5.53;;;4.70;;
67595;SDS011;54410;48.694;8.934;2022-08-03T03:40:50;5.35;;;4.90;;
67595;SDS011;54410;48.694;8.934;2022-08-03T03:43:16;5.03;;;4.63;;
67595;SDS011;54410;48.694;8.934;2022-08-03T03:45:42;5.45;;;4.93;;
67595;SDS011;54410;48.694;8.934;2022-08-03T03:48:08;5.95;;;4.88;;
67595;SDS011;54410;48.694;8.934;2022-08-03T03:50:35;5.35;;;4.70;;
67595;SDS011;54410;48.694;8.934;2022-08-03T03:53:07;5.05;;;4.65;;
67595;SDS011;54410;48.694;8.934;2022-08-03T03:55:33;5.55;;;5.05;;
67595;SDS011;54410;48.694;8.934;2022-08-03T03:57:59;5.47;;;4.97;;
67595;SDS011;54410;48.694;8.934;2022-08-03T04:00:25;4.90;;;4.47;;
67595;SDS011;54410;48.694;8.934;2022-08-03T04:02:51;5.28;;;4.78;;
67595;SDS011;54410;48.694;8.934;2022-08-03T04:05:17;5.25;;;4.85;;
67595;SDS011;54410;48.694;8.934;2022-08-03T04:08:08;5.82;;;5.25;;
67595;SDS011;54410;48.694;8.934;2022-08-03T04:13:47;5.80;;;5.15;;
67595;SDS011;54410;48.694;8.934;2022-08-03T04:16:14;6.40;;;5.82;;
67595;SDS011;54410;48.694;8.934;2022-08-03T04:18:41;6.10;;;5.53;;
67595;SDS011;54410;48.694;8.934;2022-08-03T04:21:12;5.90;;;5.30;;
67595;SDS011;54410;48.694;8.934;2022-08-03T04:23:42;6.30;;;5.20;;
67595;SDS011;54410;48.694;8.934;2022-08-03T04:26:11;5.57;;;5.07;;
67595;SDS011;54410;48.694;8.934;2022-08-03T04:28:38;5.38;;;4.90;;
67595;SDS011;54410;48.694;8.934;2022-08-03T04:31:05;5.30;;;4.90;;
67595;SDS011;54410;48.694;8.934;2022-08-03T04:33:32;5.63;;;5.13;;
67595;SDS011;54410;48.694;8.934;2022-08-03T04:35:59;5.88;;;5.38;;
67595;SDS011;54410;48.694;8.934;2022-08-03T04:38:25;4.88;;;4.38;;
67595;SDS011;54410;48.694;8.934;2022-08-03T04:40:54;4.30;;;3.90;;
67595;SDS011;54410;48.694;8.934;2022-08-03T04:43:20;4.57;;;3.83;;
67595;SDS011;54410;48.694;8.934;2022-08-03T04:45:46;3.95;;;3.35;;
67595;SDS011;54410;48.694;8.934;2022-08-03T04:48:13;3.60;;;3.30;;
67595;SDS011;54410;48.694;8.934;2022-08-03T04:50:40;3.33;;;3.05;;
67595;SDS011;54410;48.694;8.934;2022-08-03T04:53:06;3.63;;;3.20;;
67595;SDS011;54410;48.694;8.934;2022-08-03T04:55:32;4.93;;;3.17;;
67595;SDS011;54410;48.694;8.934;2022-08-03T04:57:58;3.00;;;2.80;;
67595;SDS011;54410;48.694;8.934;2022-08-03T05:00:25;3.08;;;2.88;;
67595;SDS011;54410;48.694;8.934;2022-08-03T05:02:50;2.67;;;2.47;;
67595;SDS011;54410;48.694;8.934;2022-08-03T05:05:17;2.50;;;2.20;;
67595;SDS011;54410;48.694;8.934;2022-08-03T05:07:43;3.90;;;2.22;;
67595;SDS011;54410;48.694;8.934;2022-08-03T05:10:10;3.30;;;2.20;;
67595;SDS011;54410;48.694;8.934;2022-08-03T05:12:36;2.65;;;2.10;;
67595;SDS011;54410;48.694;8.934;2022-08-03T05:15:02;2.63;;;2.42;;
67595;SDS011;54410;48.694;8.934;2022-08-03T05:17:29;2.53;;;2.10;;
67595;SDS011;54410;48.694;8.934;2022-08-03T05:19:54;3.22;;;2.10;;
67595;SDS011;54410;48.694;8.934;2022-08-03T05:22:21;2.35;;;2.15;;
67595;SDS011;54410;48.694;8.934;2022-08-03T05:24:47;3.20;;;2.25;;
67595;SDS011;54410;48.694;8.934;2022-08-03T05:27:13;2.33;;;2.22;;
67595;SDS011;54410;48.694;8.934;2022-08-03T05:29:43;2.20;;;2.10;;
67595;SDS011;54410;48.694;8.934;2022-08-03T05:32:09;3.45;;;2.33;;
67595;SDS011;54410;48.694;8.934;2022-08-03T05:34:35;3.63;;;2.40;;
67595;SDS011;54410;48.694;8.934;2022-08-03T05:37:01;2.35;;;1.90;;
67595;SDS011;54410;48.694;8.934;2022-08-03T05:39:26;2.95;;;2.28;;
67595;SDS011;54410;48.694;8.934;2022-08-03T05:41:52;3.63;;;2.00;;
67595;SDS011;54410;48.694;8.934;2022-08-03T05:44:17;2.55;;;2.05;;
67595;SDS011;54410;48.694;8.934;2022-08-03T05:46:43;3.70;;;1.70;;
67595;SDS011;54410;48.694;8.934;2022-08-03T05:49:09;1.92;;;1.80;;
67595;SDS011;54410;48.694;8.934;2022-08-03T05:51:34;4.32;;;2.00;;
67595;SDS011;54410;48.694;8.934;2022-08-03T05:54:01;5.30;;;2.15;;
67595;SDS011;54410;48.694;8.934;2022-08-03T05:56:27;3.97;;;2.17;;
67595;SDS011;54410;48.694;8.934;2022-08-03T05:58:52;4.28;;;2.03;;
67595;SDS011;54410;48.694;8.934;2022-08-03T06:01:18;2.47;;;1.90;;
67595;SDS011;54410;48.694;8.934;2022-08-03T06:03:48;2.45;;;2.08;;
67595;SDS011;54410;48.694;8.934;2022-08-03T06:06:14;2.20;;;2.10;;
67595;SDS011;54410;48.694;8.934;2022-08-03T06:08:41;2.83;;;1.88;;
67595;SDS011;54410;48.694;8.934;2022-08-03T06:11:07;3.13;;;1.50;;
67595;SDS011;54410;48.694;8.934;2022-08-03T06:13:33;2.42;;;1.80;;
67595;SDS011;54410;48.694;8.934;2022-08-03T06:15:59;2.47;;;2.08;;
67595;SDS011;54410;48.694;8.934;2022-08-03T06:18:24;5.05;;;2.00;;
67595;SDS011;54410;48.694;8.934;2022-08-03T06:20:50;3.70;;;2.33;;
67595;SDS011;54410;48.694;8.934;2022-08-03T06:23:16;4.53;;;1.98;;
67595;SDS011;54410;48.694;8.934;2022-08-03T06:25:42;8.00;;;2.53;;
67595;SDS011;54410;48.694;8.934;2022-08-03T06:28:08;21.55;;;2.95;;
67595;SDS011;54410;48.694;8.934;2022-08-03T06:30:33;14.15;;;3.08;;
67595;SDS011;54410;48.694;8.934;2022-08-03T06:33:00;19.52;;;3.90;;
67595;SDS011;54410;48.694;8.934;2022-08-03T06:35:25;15.05;;;3.35;;
67595;SDS011;54410;48.694;8.934;2022-08-03T06:37:51;13.55;;;3.00;;
67595;SDS011;54410;48.694;8.934;2022-08-03T06:40:19;15.40;;;3.10;;
67595;SDS011;54410;48.694;8.934;2022-08-03T06:42:53;18.90;;;3.28;;
67595;SDS011;54410;48.694;8.934;2022-08-03T06:45:18;15.93;;;3.00;;
67595;SDS011;54410;48.694;8.934;2022-08-03T06:47:44;17.05;;;2.95;;
67595;SDS011;54410;48.694;8.934;2022-08-03T06:50:10;12.63;;;3.10;;
67595;SDS011;54410;48.694;8.934;2022-08-03T06:52:35;20.83;;;3.30;;
67595;SDS011;54410;48.694;8.934;2022-08-03T06:55:01;18.50;;;5.15;;
67595;SDS011;54410;48.694;8.934;2022-08-03T06:57:27;16.10;;;3.42;;
67595;SDS011;54410;48.694;8.934;2022-08-03T06:59:53;10.60;;;3.00;;
67595;SDS011;54410;48.694;8.934;2022-08-03T07:02:20;14.05;;;3.00;;
67595;SDS011;54410;48.694;8.934;2022-08-03T07:04:46;9.15;;;2.72;;
67595;SDS011;54410;48.694;8.934;2022-08-03T07:07:12;6.00;;;2.80;;
67595;SDS011;54410;48.694;8.934;2022-08-03T07:09:38;7.72;;;2.40;;
67595;SDS011;54410;48.694;8.934;2022-08-03T07:12:04;9.75;;;2.33;;
67595;SDS011;54410;48.694;8.934;2022-08-03T07:14:30;8.00;;;1.90;;
67595;SDS011;54410;48.694;8.934;2022-08-03T07:16:56;5.53;;;2.00;;
67595;SDS011;54410;48.694;8.934;2022-08-03T07:19:21;4.53;;;1.80;;
67595;SDS011;54410;48.694;8.934;2022-08-03T07:21:47;8.85;;;2.20;;
67595;SDS011;54410;48.694;8.934;2022-08-03T07:24:13;6.95;;;2.13;;
67595;SDS011;54410;48.694;8.934;2022-08-03T07:26:38;4.55;;;1.98;;
67595;SDS011;54410;48.694;8.934;2022-08-03T07:29:04;6.10;;;2.05;;
67595;SDS011;54410;48.694;8.934;2022-08-03T07:31:29;5.57;;;4.22;;
67595;SDS011;54410;48.694;8.934;2022-08-03T07:33:55;2.15;;;1.50;;
67595;SDS011;54410;48.694;8.934;2022-08-03T07:36:21;2.90;;;1.45;;
67595;SDS011;54410;48.694;8.934;2022-08-03T07:38:47;2.28;;;1.40;;
67595;SDS011;54410;48.694;8.934;2022-08-03T07:41:12;1.90;;;1.52;;
67595;SDS011;54410;48.694;8.934;2022-08-03T07:43:38;3.00;;;1.50;;
67595;SDS011;54410;48.694;8.934;2022-08-03T07:46:03;2.78;;;1.50;;
67595;SDS011;54410;48.694;8.934;2022-08-03T07:48:29;1.85;;;1.42;;
67595;SDS011;54410;48.694;8.934;2022-08-03T07:50:54;1.40;;;1.25;;
67595;SDS011;54410;48.694;8.934;2022-08-03T07:53:20;2.70;;;1.60;;
67595;SDS011;54410;48.694;8.934;2022-08-03T07:55:46;1.70;;;1.60;;
67595;SDS011;54410;48.694;8.934;2022-08-03T07:58:12;3.03;;;1.20;;
67595;SDS011;54410;48.694;8.934;2022-08-03T08:00:40;2.78;;;1.30;;
67595;SDS011;54410;48.694;8.934;2022-08-03T08:03:06;2.90;;;1.30;;
67595;SDS011;54410;48.694;8.934;2022-08-03T08:05:32;1.52;;;1.20;;
67595;SDS011;54410;48.694;8.934;2022-08-03T08:07:59;2.83;;;1.20;;
67595;SDS011;54410;48.694;8.934;2022-08-03T08:10:25;2.00;;;1.80;;
67595;SDS011;54410;48.694;8.934;2022-08-03T08:12:51;1.50;;;1.30;;
67595;SDS011;54410;48.694;8.934;2022-08-03T08:15:17;2.50;;;1.30;;
67595;SDS011;54410;48.694;8.934;2022-08-03T08:17:44;1.45;;;1.15;;
67595;SDS011;54410;48.694;8.934;2022-08-03T08:20:14;1.77;;;1.25;;
67595;SDS011;54410;48.694;8.934;2022-08-03T08:22:41;2.22;;;1.50;;
67595;SDS011;54410;48.694;8.934;2022-08-03T08:25:07;1.25;;;1.15;;
67595;SDS011;54410;48.694;8.934;2022-08-03T08:27:39;2.55;;;1.10;;
67595;SDS011;54410;48.694;8.934;2022-08-03T08:30:06;2.30;;;1.02;;
67595;SDS011;54410;48.694;8.934;2022-08-03T08:32:33;1.40;;;1.25;;
67595;SDS011;54410;48.694;8.934;2022-08-03T08:34:58;3.13;;;1.20;;
67595;SDS011;54410;48.694;8.934;2022-08-03T08:37:24;2.20;;;1.17;;
67595;SDS011;54410;48.694;8.934;2022-08-03T08:39:50;2.53;;;1.15;;
67595;SDS011;54410;48.694;8.934;2022-08-03T08:42:15;1.10;;;1.02;;
67595;SDS011;54410;48.694;8.934;2022-08-03T08:44:41;3.55;;;1.10;;
67595;SDS011;54410;48.694;8.934;2022-08-03T08:47:07;1.30;;;0.90;;
67595;SDS011;54410;48.694;8.934;2022-08-03T08:49:33;2.20;;;1.00;;
67595;SDS011;54410;48.694;8.934;2022-08-03T08:52:00;2.50;;;2.10;;
67595;SDS011;54410;48.694;8.934;2022-08-03T08:54:28;2.95;;;0.88;;
67595;SDS011;54410;48.694;8.934;2022-08-03T08:56:53;2.33;;;0.90;;
67595;SDS011;54410;48.694;8.934;2022-08-03T08:59:21;4.47;;;1.00;;
67595;SDS011;54410;48.694;8.934;2022-08-03T09:01:47;2.47;;;0.93;;
67595;SDS011;54410;48.694;8.934;2022-08-03T09:04:12;2.65;;;0.95;;
67595;SDS011;54410;48.694;8.934;2022-08-03T09:06:38;1.60;;;1.20;;
67595;SDS011;54410;48.694;8.934;2022-08-03T09:09:05;1.17;;;1.00;;
67595;SDS011;54410;48.694;8.934;2022-08-03T09:11:32;2.28;;;0.90;;
67595;SDS011;54410;48.694;8.934;2022-08-03T09:13:57;2.80;;;0.95;;
67595;SDS011;54410;48.694;8.934;2022-08-03T09:16:23;2.42;;;1.55;;
67595;SDS011;54410;48.694;8.934;2022-08-03T09:18:50;0.95;;;0.85;;
67595;SDS011;54410;48.694;8.934;2022-08-03T09:23:51;1.77;;;0.70;;
67595;SDS011;54410;48.694;8.934;2022-08-03T09:26:24;1.40;;;0.80;;
67595;SDS011;54410;48.694;8.934;2022-08-03T09:28:59;0.77;;;0.60;;
67595;SDS011;54410;48.694;8.934;2022-08-03T09:31:29;2.65;;;0.77;;
67595;SDS011;54410;48.694;8.934;2022-08-03T09:33:56;1.05;;;0.77;;
67595;SDS011;54410;48.694;8.934;2022-08-03T09:36:41;1.00;;;0.80;;
67595;SDS011;54410;48.694;8.934;2022-08-03T09:39:43;1.35;;;0.70;;
67595;SDS011;54410;48.694;8.934;2022-08-03T09:42:09;0.60;;;0.60;;
67595;SDS011;54410;48.694;8.934;2022-08-03T09:44:37;0.93;;;0.73;;
67595;SDS011;54410;48.694;8.934;2022-08-03T09:47:06;1.98;;;0.90;;
67595;SDS011;54410;48.694;8.934;2022-08-03T09:49:34;0.73;;;0.73;;
67595;SDS011;54410;48.694;8.934;2022-08-03T09:52:00;0.88;;;0.88;;
67595;SDS011;54410;48.694;8.934;2022-08-03T09:54:36;0.80;;;0.80;;
67595;SDS011;54410;48.694;8.934;2022-08-03T09:57:07;0.77;;;0.65;;
67595;SDS011;54410;48.694;8.934;2022-08-03T09:59:43;0.80;;;0.80;;
67595;SDS011;54410;48.694;8.934;2022-08-03T10:02:19;1.30;;;0.80;;
67595;SDS011;54410;48.694;8.934;2022-08-03T10:04:46;1.02;;;0.80;;
67595;SDS011;54410;48.694;8.934;2022-08-03T10:07:14;1.35;;;0.80;;
67595;SDS011;54410;48.694;8.934;2022-08-03T10:09:51;2.78;;;0.70;;
67595;SDS011;54410;48.694;8.934;2022-08-03T10:12:17;3.60;;;0.82;;
67595;SDS011;54410;48.694;8.934;2022-08-03T10:14:43;1.30;;;0.80;;
67595;SDS011;54410;48.694;8.934;2022-08-03T10:17:10;0.70;;;0.70;;
67595;SDS011;54410;48.694;8.934;2022-08-03T10:19:36;2.97;;;1.00;;
67595;SDS011;54410;48.694;8.934;2022-08-03T10:22:26;2.72;;;0.90;;
67595;SDS011;54410;48.694;8.934;2022-08-03T10:24:55;1.92;;;0.98;;
67595;SDS011;54410;48.694;8.934;2022-08-03T10:27:23;2.60;;;1.02;;
67595;SDS011;54410;48.694;8.934;2022-08-03T10:29:51;2.85;;;1.10;;
67595;SDS011;54410;48.694;8.934;2022-08-03T10:32:27;1.20;;;1.02;;
67595;SDS011;54410;48.694;8.934;2022-08-03T10:34:59;2.60;;;0.95;;
67595;SDS011;54410;48.694;8.934;2022-08-03T10:37:29;4.72;;;1.27;;
67595;SDS011;54410;48.694;8.934;2022-08-03T10:39:57;1.40;;;1.08;;
67595;SDS011;54410;48.694;8.934;2022-08-03T10:42:24;1.50;;;1.00;;
67595;SDS011;54410;48.694;8.934;2022-08-03T10:44:57;4.50;;;3.80;;
67595;SDS011;54410;48.694;8.934;2022-08-03T10:47:28;4.78;;;1.50;;
67595;SDS011;54410;48.694;8.934;2022-08-03T10:49:56;2.13;;;1.25;;
67595;SDS011;54410;48.694;8.934;2022-08-03T10:52:22;1.00;;;1.00;;
67595;SDS011;54410;48.694;8.934;2022-08-03T10:54:47;1.80;;;1.20;;
67595;SDS011;54410;48.694;8.934;2022-08-03T11:05:37;3.08;;;1.35;;
67595;SDS011;54410;48.694;8.934;2022-08-03T11:10:41;1.63;;;1.27;;
67595;SDS011;54410;48.694;8.934;2022-08-03T11:13:08;1.45;;;1.20;;
67595;SDS011;54410;48.694;8.934;2022-08-03T11:15:33;2.88;;;1.20;;
67595;SDS011;54410;48.694;8.934;2022-08-03T11:18:09;2.95;;;1.23;;
67595;SDS011;54410;48.694;8.934;2022-08-03T11:20:55;1.75;;;1.33;;
67595;SDS011;54410;48.694;8.934;2022-08-03T11:26:14;3.08;;;1.20;;
67595;SDS011;54410;48.694;8.934;2022-08-03T11:28:41;1.45;;;1.30;;
67595;SDS011;54410;48.694;8.934;2022-08-03T11:34:04;1.50;;;1.40;;
67595;SDS011;54410;48.694;8.934;2022-08-03T11:39:37;2.83;;;1.33;;
67595;SDS011;54410;48.694;8.934;2022-08-03T11:44:59;3.75;;;1.30;;
67595;SDS011;54410;48.694;8.934;2022-08-03T11:47:25;4.25;;;1.27;;
67595;SDS011;54410;48.694;8.934;2022-08-03T11:49:53;4.15;;;1.30;;
67595;SDS011;54410;48.694;8.934;2022-08-03T11:52:23;1.30;;;1.20;;
67595;SDS011;54410;48.694;8.934;2022-08-03T11:54:50;3.05;;;1.40;;
67595;SDS011;54410;48.694;8.934;2022-08-03T11:57:32;1.65;;;1.35;;
67595;SDS011;54410;48.694;8.934;2022-08-03T11:59:58;1.90;;;1.30;;
67595;SDS011;54410;48.694;8.934;2022-08-03T12:02:24;1.70;;;1.30;;
67595;SDS011;54410;48.694;8.934;2022-08-03T12:04:51;2.05;;;1.45;;
67595;SDS011;54410;48.694;8.934;2022-08-03T12:07:17;1.40;;;1.30;;
67595;SDS011;54410;48.694;8.934;2022-08-03T12:09:43;1.55;;;1.23;;
67595;SDS011;54410;48.694;8.934;2022-08-03T12:12:29;1.40;;;1.27;;
67595;SDS011;54410;48.694;8.934;2022-08-03T12:14:55;1.95;;;1.50;;
67595;SDS011;54410;48.694;8.934;2022-08-03T12:17:22;1.45;;;1.33;;
67595;SDS011;54410;48.694;8.934;2022-08-03T12:19:48;2.78;;;1.30;;
67595;SDS011;54410;48.694;8.934;2022-08-03T12:22:13;1.80;;;1.30;;
67595;SDS011;54410;48.694;8.934;2022-08-03T12:24:44;2.75;;;1.30;;
67595;SDS011;54410;48.694;8.934;2022-08-03T12:27:09;2.13;;;1.30;;
67595;SDS011;54410;48.694;8.934;2022-08-03T12:29:35;3.40;;;1.30;;
67595;SDS011;54410;48.694;8.934;2022-08-03T12:32:02;5.50;;;1.40;;
67595;SDS011;54410;48.694;8.934;2022-08-03T12:34:47;1.85;;;1.20;;
67595;SDS011;54410;48.694;8.934;2022-08-03T12:37:13;2.10;;;1.23;;
67595;SDS011;54410;48.694;8.934;2022-08-03T12:39:39;3.00;;;1.40;;
67595;SDS011;54410;48.694;8.934;2022-08-03T12:42:05;2.38;;;1.20;;
67595;SDS011;54410;48.694;8.934;2022-08-03T12:44:32;1.40;;;1.30;;
67595;SDS011;54410;48.694;8.934;2022-08-03T12:46:59;1.58;;;1.20;;
67595;SDS011;54410;48.694;8.934;2022-08-03T12:49:25;1.85;;;1.10;;
67595;SDS011;54410;48.694;8.934;2022-08-03T12:54:20;1.58;;;1.42;;
67595;SDS011;54410;48.694;8.934;2022-08-03T12:59:35;1.80;;;1.30;;
67595;SDS011;54410;48.694;8.934;2022-08-03T13:02:01;1.77;;;1.20;;
67595;SDS011;54410;48.694;8.934;2022-08-03T13:04:31;1.85;;;1.25;;
67595;SDS011;54410;48.694;8.934;2022-08-03T13:09:28;1.80;;;1.13;;
67595;SDS011;54410;48.694;8.934;2022-08-03T13:12:09;1.38;;;1.27;;
67595;SDS011;54410;48.694;8.934;2022-08-03T13:14:36;5.97;;;1.33;;
67595;SDS011;54410;48.694;8.934;2022-08-03T13:17:03;1.65;;;1.25;;
67595;SDS011;54410;48.694;8.934;2022-08-03T13:19:30;2.30;;;1.15;;
67595;SDS011;54410;48.694;8.934;2022-08-03T13:21:57;1.30;;;1.10;;
67595;SDS011;54410;48.694;8.934;2022-08-03T13:24:22;2.58;;;1.20;;
67595;SDS011;54410;48.694;8.934;2022-08-03T13:26:48;0.90;;;0.90;;
67595;SDS011;54410;48.694;8.934;2022-08-03T13:29:15;1.35;;;1.10;;
67595;SDS011;54410;48.694;8.934;2022-08-03T13:31:41;2.05;;;1.10;;
67595;SDS011;54410;48.694;8.934;2022-08-03T13:34:07;2.15;;;1.20;;
67595;SDS011;54410;48.694;8.934;2022-08-03T13:36:33;2.63;;;1.40;;
67595;SDS011;54410;48.694;8.934;2022-08-03T13:38:59;1.27;;;1.10;;
67595;SDS011;54410;48.694;8.934;2022-08-03T13:41:25;2.47;;;1.33;;
67595;SDS011;54410;48.694;8.934;2022-08-03T13:43:51;2.40;;;1.20;;
67595;SDS011;54410;48.694;8.934;2022-08-03T13:46:17;2.70;;;2.50;;
67595;SDS011;54410;48.694;8.934;2022-08-03T13:48:44;4.65;;;2.35;;
67595;SDS011;54410;48.694;8.934;2022-08-03T13:51:10;4.25;;;1.33;;
67595;SDS011;54410;48.694;8.934;2022-08-03T13:53:35;2.35;;;1.35;;
67595;SDS011;54410;48.694;8.934;2022-08-03T13:56:01;1.65;;;1.35;;
67595;SDS011;54410;48.694;8.934;2022-08-03T13:58:27;0.90;;;0.90;;
67595;SDS011;54410;48.694;8.934;2022-08-03T14:00:53;1.55;;;1.00;;
67595;SDS011;54410;48.694;8.934;2022-08-03T14:03:19;3.15;;;1.13;;
67595;SDS011;54410;48.694;8.934;2022-08-03T14:05:45;2.58;;;1.30;;
67595;SDS011;54410;48.694;8.934;2022-08-03T14:08:12;1.15;;;1.05;;
67595;SDS011;54410;48.694;8.934;2022-08-03T14:10:39;3.17;;;1.38;;
67595;SDS011;54410;48.694;8.934;2022-08-03T14:13:07;2.72;;;1.30;;
67595;SDS011;54410;48.694;8.934;2022-08-03T14:15:32;3.47;;;1.20;;
67595;SDS011;54410;48.694;8.934;2022-08-03T14:17:58;1.90;;;1.20;;
67595;SDS011;54410;48.694;8.934;2022-08-03T14:20:24;2.13;;;1.20;;
67595;SDS011;54410;48.694;8.934;2022-08-03T14:22:50;1.90;;;1.05;;
67595;SDS011;54410;48.694;8.934;2022-08-03T14:25:17;2.75;;;1.30;;
67595;SDS011;54410;48.694;8.934;2022-08-03T14:27:43;2.85;;;1.20;;
67595;SDS011;54410;48.694;8.934;2022-08-03T14:30:09;2.97;;;1.27;;
67595;SDS011;54410;48.694;8.934;2022-08-03T14:32:35;2.45;;;1.23;;
67595;SDS011;54410;48.694;8.934;2022-08-03T14:35:01;2.50;;;1.10;;
67595;SDS011;54410;48.694;8.934;2022-08-03T14:37:27;2.35;;;0.98;;
67595;SDS011;54410;48.694;8.934;2022-08-03T14:39:53;2.92;;;1.10;;
67595;SDS011;54410;48.694;8.934;2022-08-03T14:42:18;1.20;;;1.10;;
67595;SDS011;54410;48.694;8.934;2022-08-03T14:44:45;2.30;;;1.05;;
67595;SDS011;54410;48.694;8.934;2022-08-03T14:47:10;1.30;;;1.00;;
67595;SDS011;54410;48.694;8.934;2022-08-03T14:49:36;2.05;;;1.30;;
67595;SDS011;54410;48.694;8.934;2022-08-03T14:52:03;1.13;;;1.02;;
67595;SDS011;54410;48.694;8.934;2022-08-03T14:54:29;2.53;;;1.40;;
67595;SDS011;54410;48.694;8.934;2022-08-03T14:56:55;2.50;;;1.40;;
67595;SDS011;54410;48.694;8.934;2022-08-03T14:59:21;1.17;;;1.08;;
67595;SDS011;54410;48.694;8.934;2022-08-03T15:01:47;6.88;;;1.55;;
67595;SDS011;54410;48.694;8.934;2022-08-03T15:04:12;1.88;;;1.30;;
67595;SDS011;54410;48.694;8.934;2022-08-03T15:06:38;1.20;;;1.10;;
67595;SDS011;54410;48.694;8.934;2022-08-03T15:09:04;1.67;;;1.10;;
67595;SDS011;54410;48.694;8.934;2022-08-03T15:11:30;2.45;;;1.10;;
67595;SDS011;54410;48.694;8.934;2022-08-03T15:13:56;1.55;;;1.42;;
67595;SDS011;54410;48.694;8.934;2022-08-03T15:16:22;18.40;;;3.80;;
67595;SDS011;54410;48.694;8.934;2022-08-03T15:18:48;3.95;;;1.40;;
67595;SDS011;54410;48.694;8.934;2022-08-03T15:21:14;1.98;;;1.15;;
67595;SDS011;54410;48.694;8.934;2022-08-03T15:23:40;1.35;;;1.23;;
67595;SDS011;54410;48.694;8.934;2022-08-03T15:26:06;4.18;;;1.52;;
67595;SDS011;54410;48.694;8.934;2022-08-03T15:28:31;1.42;;;1.10;;
67595;SDS011;54410;48.694;8.934;2022-08-03T15:30:57;2.15;;;1.20;;
67595;SDS011;54410;48.694;8.934;2022-08-03T15:33:23;1.40;;;1.30;;